sensor_id;sensor_type;location;lat;lon;timestamp;temperature;humidity
12568;DHT22;6349;50.904;6.136;2023-07-31T00:01:21;17.10;99.90
12568;DHT22;6349;50.904;6.136;2023-07-31T00:03:21;17.10;99.90
12568;DHT22;6349;50.904;6.136;2023-07-31T00:05:22;17.10;99.90
12568;DHT22;6349;50.904;6.136;2023-07-31T00:07:22;17.10;99.90
12568;DHT22;6349;50.904;6.136;2023-07-31T00:09:23;17.10;99.90
12568;DHT22;6349;50.904;6.136;2023-07-31T00:11:24;17.10;99.90
12568;DHT22;6349;50.904;6.136;2023-07-31T00:13:24;17.10;99.90
12568;DHT22;6349;50.904;6.136;2023-07-31T00:15:25;17.10;99.90
12568;DHT22;6349;50.904;6.136;2023-07-31T00:17:25;17.10;99.90
12568;DHT22;6349;50.904;6.136;2023-07-31T00:19:26;17.10;99.90
12568;DHT22;6349;50.904;6.136;2023-07-31T00:21:26;17.10;99.90
12568;DHT22;6349;50.904;6.136;2023-07-31T00:23:27;17.10;99.90
12568;DHT22;6349;50.904;6.136;2023-07-31T00:25:28;17.10;99.90
12568;DHT22;6349;50.904;6.136;2023-07-31T00:27:28;17.10;99.90
12568;DHT22;6349;50.904;6.136;2023-07-31T00:29:29;17.10;99.90
12568;DHT22;6349;50.904;6.136;2023-07-31T00:31:29;17.00;99.90
12568;DHT22;6349;50.904;6.136;2023-07-31T00:33:31;17.10;99.90
12568;DHT22;6349;50.904;6.136;2023-07-31T00:35:31;17.00;99.90
12568;DHT22;6349;50.904;6.136;2023-07-31T00:37:32;17.00;99.90
12568;DHT22;6349;50.904;6.136;2023-07-31T00:39:34;17.00;99.90
12568;DHT22;6349;50.904;6.136;2023-07-31T00:41:34;17.10;99.90
12568;DHT22;6349;50.904;6.136;2023-07-31T00:43:35;17.00;99.90
12568;DHT22;6349;50.904;6.136;2023-07-31T00:45:35;17.00;99.90
12568;DHT22;6349;50.904;6.136;2023-07-31T00:47:36;17.10;99.90
12568;DHT22;6349;50.904;6.136;2023-07-31T00:49:37;17.10;99.90
12568;DHT22;6349;50.904;6.136;2023-07-31T00:51:37;17.10;99.90
12568;DHT22;6349;50.904;6.136;2023-07-31T00:53:38;17.00;99.90
12568;DHT22;6349;50.904;6.136;2023-07-31T00:55:40;17.00;99.90
12568;DHT22;6349;50.904;6.136;2023-07-31T00:57:41;17.00;99.90
12568;DHT22;6349;50.904;6.136;2023-07-31T00:59:42;17.00;99.90
12568;DHT22;6349;50.904;6.136;2023-07-31T01:01:43;17.00;99.90
12568;DHT22;6349;50.904;6.136;2023-07-31T01:03:43;17.00;99.90
12568;DHT22;6349;50.904;6.136;2023-07-31T01:08:06;17.00;99.90
12568;DHT22;6349;50.904;6.136;2023-07-31T01:10:24;17.00;99.90
12568;DHT22;6349;50.904;6.136;2023-07-31T01:12:27;17.00;99.90
12568;DHT22;6349;50.904;6.136;2023-07-31T01:14:30;17.00;99.90
12568;DHT22;6349;50.904;6.136;2023-07-31T01:16:30;17.00;99.90
12568;DHT22;6349;50.904;6.136;2023-07-31T01:18:31;17.00;99.90
12568;DHT22;6349;50.904;6.136;2023-07-31T01:20:32;17.00;99.90
12568;DHT22;6349;50.904;6.136;2023-07-31T01:27:46;17.00;99.90
12568;DHT22;6349;50.904;6.136;2023-07-31T01:30:14;17.00;99.90
12568;DHT22;6349;50.904;6.136;2023-07-31T01:32:18;17.10;99.90
12568;DHT22;6349;50.904;6.136;2023-07-31T01:34:19;17.00;99.90
12568;DHT22;6349;50.904;6.136;2023-07-31T01:36:21;17.10;99.90
12568;DHT22;6349;50.904;6.136;2023-07-31T01:38:22;17.10;99.90
12568;DHT22;6349;50.904;6.136;2023-07-31T01:40:23;17.10;99.90
12568;DHT22;6349;50.904;6.136;2023-07-31T01:42:23;17.00;99.90
12568;DHT22;6349;50.904;6.136;2023-07-31T01:44:24;17.00;99.90
12568;DHT22;6349;50.904;6.136;2023-07-31T01:46:24;17.10;99.90
12568;DHT22;6349;50.904;6.136;2023-07-31T01:48:25;17.10;99.90
12568;DHT22;6349;50.904;6.136;2023-07-31T01:50:26;17.10;99.90
12568;DHT22;6349;50.904;6.136;2023-07-31T01:52:26;17.10;99.90
12568;DHT22;6349;50.904;6.136;2023-07-31T01:54:27;17.10;99.90
12568;DHT22;6349;50.904;6.136;2023-07-31T01:56:27;17.10;99.90
12568;DHT22;6349;50.904;6.136;2023-07-31T01:58:28;17.10;99.90
12568;DHT22;6349;50.904;6.136;2023-07-31T02:00:29;17.10;99.90
12568;DHT22;6349;50.904;6.136;2023-07-31T02:02:29;17.10;99.90
12568;DHT22;6349;50.904;6.136;2023-07-31T02:04:30;17.10;99.90
12568;DHT22;6349;50.904;6.136;2023-07-31T02:06:30;17.10;99.90
12568;DHT22;6349;50.904;6.136;2023-07-31T02:08:31;17.20;99.90
12568;DHT22;6349;50.904;6.136;2023-07-31T02:10:31;17.10;99.90
12568;DHT22;6349;50.904;6.136;2023-07-31T02:12:32;17.10;99.90
12568;DHT22;6349;50.904;6.136;2023-07-31T02:14:34;17.10;99.90
12568;DHT22;6349;50.904;6.136;2023-07-31T02:16:35;17.20;99.90
12568;DHT22;6349;50.904;6.136;2023-07-31T02:18:35;17.20;99.90
12568;DHT22;6349;50.904;6.136;2023-07-31T02:20:36;17.20;99.90
12568;DHT22;6349;50.904;6.136;2023-07-31T02:22:36;17.20;99.90
12568;DHT22;6349;50.904;6.136;2023-07-31T02:24:37;17.20;99.90
12568;DHT22;6349;50.904;6.136;2023-07-31T02:26:37;17.20;99.90
12568;DHT22;6349;50.904;6.136;2023-07-31T02:28:38;17.20;99.90
12568;DHT22;6349;50.904;6.136;2023-07-31T02:30:38;17.20;99.90
12568;DHT22;6349;50.904;6.136;2023-07-31T02:32:39;17.20;99.90
12568;DHT22;6349;50.904;6.136;2023-07-31T02:34:39;17.20;99.90
12568;DHT22;6349;50.904;6.136;2023-07-31T02:36:40;17.20;99.90
12568;DHT22;6349;50.904;6.136;2023-07-31T02:38:41;17.20;99.90
12568;DHT22;6349;50.904;6.136;2023-07-31T02:40:41;17.20;99.90
12568;DHT22;6349;50.904;6.136;2023-07-31T02:42:42;17.20;99.90
12568;DHT22;6349;50.904;6.136;2023-07-31T02:44:42;17.20;99.90
12568;DHT22;6349;50.904;6.136;2023-07-31T02:46:43;17.20;99.90
12568;DHT22;6349;50.904;6.136;2023-07-31T02:48:43;17.20;99.90
12568;DHT22;6349;50.904;6.136;2023-07-31T02:50:45;17.20;99.90
12568;DHT22;6349;50.904;6.136;2023-07-31T02:52:50;17.20;99.90
12568;DHT22;6349;50.904;6.136;2023-07-31T02:54:51;17.30;99.90
12568;DHT22;6349;50.904;6.136;2023-07-31T02:56:52;17.20;99.90
12568;DHT22;6349;50.904;6.136;2023-07-31T02:58:52;17.20;99.90
12568;DHT22;6349;50.904;6.136;2023-07-31T03:00:53;17.20;99.90
12568;DHT22;6349;50.904;6.136;2023-07-31T03:02:54;17.30;99.90
12568;DHT22;6349;50.904;6.136;2023-07-31T03:04:54;17.20;99.90
12568;DHT22;6349;50.904;6.136;2023-07-31T03:06:55;17.20;99.90
12568;DHT22;6349;50.904;6.136;2023-07-31T03:08:55;17.20;99.90
12568;DHT22;6349;50.904;6.136;2023-07-31T03:10:57;17.30;99.90
12568;DHT22;6349;50.904;6.136;2023-07-31T03:12:57;17.20;99.90
12568;DHT22;6349;50.904;6.136;2023-07-31T03:14:58;17.30;99.90
12568;DHT22;6349;50.904;6.136;2023-07-31T03:16:59;17.20;99.90
12568;DHT22;6349;50.904;6.136;2023-07-31T03:18:59;17.20;99.90
12568;DHT22;6349;50.904;6.136;2023-07-31T03:21:00;17.20;99.90
12568;DHT22;6349;50.904;6.136;2023-07-31T03:23:01;17.30;99.90
12568;DHT22;6349;50.904;6.136;2023-07-31T03:25:02;17.30;99.90
12568;DHT22;6349;50.904;6.136;2023-07-31T03:27:03;17.30;99.90
12568;DHT22;6349;50.904;6.136;2023-07-31T03:29:04;17.30;99.90
12568;DHT22;6349;50.904;6.136;2023-07-31T03:31:04;17.30;99.90
12568;DHT22;6349;50.904;6.136;2023-07-31T03:33:05;17.20;99.90
12568;DHT22;6349;50.904;6.136;2023-07-31T03:35:06;17.30;99.90
12568;DHT22;6349;50.904;6.136;2023-07-31T03:37:06;17.30;99.90
12568;DHT22;6349;50.904;6.136;2023-07-31T03:39:07;17.30;99.90
12568;DHT22;6349;50.904;6.136;2023-07-31T03:41:07;17.30;99.90
12568;DHT22;6349;50.904;6.136;2023-07-31T03:43:08;17.30;99.90
12568;DHT22;6349;50.904;6.136;2023-07-31T03:45:09;17.20;99.90
12568;DHT22;6349;50.904;6.136;2023-07-31T03:47:10;17.30;99.90
12568;DHT22;6349;50.904;6.136;2023-07-31T03:49:10;17.20;99.90
12568;DHT22;6349;50.904;6.136;2023-07-31T03:51:11;17.20;99.90
12568;DHT22;6349;50.904;6.136;2023-07-31T03:53:11;17.30;99.90
12568;DHT22;6349;50.904;6.136;2023-07-31T03:55:12;17.20;99.90
12568;DHT22;6349;50.904;6.136;2023-07-31T03:57:12;17.30;99.90
12568;DHT22;6349;50.904;6.136;2023-07-31T03:59:13;17.30;99.90
12568;DHT22;6349;50.904;6.136;2023-07-31T04:01:14;17.30;99.90
12568;DHT22;6349;50.904;6.136;2023-07-31T04:03:14;17.30;99.90
12568;DHT22;6349;50.904;6.136;2023-07-31T04:05:15;17.30;99.90
12568;DHT22;6349;50.904;6.136;2023-07-31T04:07:15;17.30;99.90
12568;DHT22;6349;50.904;6.136;2023-07-31T04:09:16;17.30;99.90
12568;DHT22;6349;50.904;6.136;2023-07-31T04:11:17;17.30;99.90
12568;DHT22;6349;50.904;6.136;2023-07-31T04:13:17;17.30;99.90
12568;DHT22;6349;50.904;6.136;2023-07-31T04:15:18;17.30;99.90
12568;DHT22;6349;50.904;6.136;2023-07-31T04:17:18;17.30;99.90
12568;DHT22;6349;50.904;6.136;2023-07-31T04:19:19;17.30;99.90
12568;DHT22;6349;50.904;6.136;2023-07-31T04:21:19;17.40;99.90
12568;DHT22;6349;50.904;6.136;2023-07-31T04:23:20;17.40;99.90
12568;DHT22;6349;50.904;6.136;2023-07-31T04:25:20;17.40;99.90
12568;DHT22;6349;50.904;6.136;2023-07-31T04:27:21;17.40;99.90
12568;DHT22;6349;50.904;6.136;2023-07-31T04:29:21;17.40;99.90
12568;DHT22;6349;50.904;6.136;2023-07-31T04:31:22;17.40;99.90
12568;DHT22;6349;50.904;6.136;2023-07-31T04:33:23;17.40;99.90
12568;DHT22;6349;50.904;6.136;2023-07-31T04:35:23;17.40;99.90
12568;DHT22;6349;50.904;6.136;2023-07-31T04:37:24;17.40;99.90
12568;DHT22;6349;50.904;6.136;2023-07-31T04:39:24;17.30;99.90
12568;DHT22;6349;50.904;6.136;2023-07-31T04:41:25;17.30;99.90
12568;DHT22;6349;50.904;6.136;2023-07-31T04:43:25;17.30;99.90
12568;DHT22;6349;50.904;6.136;2023-07-31T04:45:26;17.30;99.90
12568;DHT22;6349;50.904;6.136;2023-07-31T04:47:27;17.30;99.90
12568;DHT22;6349;50.904;6.136;2023-07-31T04:49:27;17.30;99.90
12568;DHT22;6349;50.904;6.136;2023-07-31T04:51:28;17.30;99.90
12568;DHT22;6349;50.904;6.136;2023-07-31T04:53:28;17.30;99.90
12568;DHT22;6349;50.904;6.136;2023-07-31T04:55:29;17.30;99.90
12568;DHT22;6349;50.904;6.136;2023-07-31T04:57:29;17.30;99.90
12568;DHT22;6349;50.904;6.136;2023-07-31T04:59:30;17.30;99.90
12568;DHT22;6349;50.904;6.136;2023-07-31T05:01:32;17.30;99.90
12568;DHT22;6349;50.904;6.136;2023-07-31T05:03:32;17.30;99.90
12568;DHT22;6349;50.904;6.136;2023-07-31T05:05:33;17.30;99.90
12568;DHT22;6349;50.904;6.136;2023-07-31T05:07:33;17.30;99.90
12568;DHT22;6349;50.904;6.136;2023-07-31T05:09:34;17.30;99.90
12568;DHT22;6349;50.904;6.136;2023-07-31T05:11:34;17.30;99.90
12568;DHT22;6349;50.904;6.136;2023-07-31T05:13:35;17.30;99.90
12568;DHT22;6349;50.904;6.136;2023-07-31T05:15:36;17.30;99.90
12568;DHT22;6349;50.904;6.136;2023-07-31T05:17:36;17.30;99.90
12568;DHT22;6349;50.904;6.136;2023-07-31T05:19:37;17.30;99.90
12568;DHT22;6349;50.904;6.136;2023-07-31T05:21:38;17.30;99.90
12568;DHT22;6349;50.904;6.136;2023-07-31T05:23:38;17.30;99.90
12568;DHT22;6349;50.904;6.136;2023-07-31T05:25:39;17.30;99.90
12568;DHT22;6349;50.904;6.136;2023-07-31T05:27:39;17.30;99.90
12568;DHT22;6349;50.904;6.136;2023-07-31T05:29:40;17.30;99.90
12568;DHT22;6349;50.904;6.136;2023-07-31T05:31:41;17.20;99.90
12568;DHT22;6349;50.904;6.136;2023-07-31T05:33:41;17.20;99.90
12568;DHT22;6349;50.904;6.136;2023-07-31T05:35:42;17.20;99.90
12568;DHT22;6349;50.904;6.136;2023-07-31T05:37:45;17.20;99.90
12568;DHT22;6349;50.904;6.136;2023-07-31T05:39:45;17.20;99.90
12568;DHT22;6349;50.904;6.136;2023-07-31T05:41:46;17.20;99.90
12568;DHT22;6349;50.904;6.136;2023-07-31T05:43:47;17.10;99.90
12568;DHT22;6349;50.904;6.136;2023-07-31T05:45:48;17.10;99.90
12568;DHT22;6349;50.904;6.136;2023-07-31T05:47:48;17.10;99.90
12568;DHT22;6349;50.904;6.136;2023-07-31T05:49:49;17.10;99.90
12568;DHT22;6349;50.904;6.136;2023-07-31T05:51:52;17.00;99.90
12568;DHT22;6349;50.904;6.136;2023-07-31T05:53:53;17.00;99.90
12568;DHT22;6349;50.904;6.136;2023-07-31T05:55:54;17.00;99.90
12568;DHT22;6349;50.904;6.136;2023-07-31T05:57:54;17.00;99.90
12568;DHT22;6349;50.904;6.136;2023-07-31T05:59:55;17.00;99.90
12568;DHT22;6349;50.904;6.136;2023-07-31T06:01:55;17.00;99.90
12568;DHT22;6349;50.904;6.136;2023-07-31T06:03:56;17.00;99.90
12568;DHT22;6349;50.904;6.136;2023-07-31T06:05:57;17.00;99.90
12568;DHT22;6349;50.904;6.136;2023-07-31T06:07:57;17.10;99.90
12568;DHT22;6349;50.904;6.136;2023-07-31T06:09:58;17.10;99.90
12568;DHT22;6349;50.904;6.136;2023-07-31T06:12:05;17.10;99.90
12568;DHT22;6349;50.904;6.136;2023-07-31T06:14:05;17.10;99.90
12568;DHT22;6349;50.904;6.136;2023-07-31T06:16:06;17.10;99.90
12568;DHT22;6349;50.904;6.136;2023-07-31T06:18:06;17.20;99.90
12568;DHT22;6349;50.904;6.136;2023-07-31T06:20:08;17.20;99.90
12568;DHT22;6349;50.904;6.136;2023-07-31T06:22:08;17.20;99.90
12568;DHT22;6349;50.904;6.136;2023-07-31T06:24:09;17.20;99.90
12568;DHT22;6349;50.904;6.136;2023-07-31T06:26:10;17.20;99.90
12568;DHT22;6349;50.904;6.136;2023-07-31T06:28:10;17.20;99.90
12568;DHT22;6349;50.904;6.136;2023-07-31T06:30:11;17.30;99.90
12568;DHT22;6349;50.904;6.136;2023-07-31T06:32:12;17.30;99.90
12568;DHT22;6349;50.904;6.136;2023-07-31T06:34:12;17.30;99.90
12568;DHT22;6349;50.904;6.136;2023-07-31T06:36:13;17.30;99.90
12568;DHT22;6349;50.904;6.136;2023-07-31T06:38:13;17.30;99.90
12568;DHT22;6349;50.904;6.136;2023-07-31T06:40:14;17.30;99.90
12568;DHT22;6349;50.904;6.136;2023-07-31T06:42:15;17.30;99.90
12568;DHT22;6349;50.904;6.136;2023-07-31T06:44:15;17.30;99.90
12568;DHT22;6349;50.904;6.136;2023-07-31T06:46:16;17.30;99.90
12568;DHT22;6349;50.904;6.136;2023-07-31T06:48:16;17.30;99.90
12568;DHT22;6349;50.904;6.136;2023-07-31T06:50:17;17.40;99.90
12568;DHT22;6349;50.904;6.136;2023-07-31T06:52:17;17.40;99.90
12568;DHT22;6349;50.904;6.136;2023-07-31T06:54:18;17.40;99.90
12568;DHT22;6349;50.904;6.136;2023-07-31T06:56:18;17.40;99.90
12568;DHT22;6349;50.904;6.136;2023-07-31T06:58:19;17.40;99.90
12568;DHT22;6349;50.904;6.136;2023-07-31T07:00:20;17.40;99.90
12568;DHT22;6349;50.904;6.136;2023-07-31T07:02:21;17.40;99.90
12568;DHT22;6349;50.904;6.136;2023-07-31T07:04:22;17.40;99.90
12568;DHT22;6349;50.904;6.136;2023-07-31T07:06:22;17.40;99.90
12568;DHT22;6349;50.904;6.136;2023-07-31T07:08:24;17.40;99.90
12568;DHT22;6349;50.904;6.136;2023-07-31T07:10:24;17.40;99.90
12568;DHT22;6349;50.904;6.136;2023-07-31T07:12:27;17.40;99.90
12568;DHT22;6349;50.904;6.136;2023-07-31T07:14:27;17.40;99.90
12568;DHT22;6349;50.904;6.136;2023-07-31T07:16:28;17.40;99.90
12568;DHT22;6349;50.904;6.136;2023-07-31T07:18:29;17.30;99.90
12568;DHT22;6349;50.904;6.136;2023-07-31T07:20:29;17.30;99.90
12568;DHT22;6349;50.904;6.136;2023-07-31T07:22:30;17.20;99.90
12568;DHT22;6349;50.904;6.136;2023-07-31T07:24:30;17.20;99.90
12568;DHT22;6349;50.904;6.136;2023-07-31T07:26:31;17.20;99.90
12568;DHT22;6349;50.904;6.136;2023-07-31T07:28:31;17.20;99.90
12568;DHT22;6349;50.904;6.136;2023-07-31T07:30:32;17.20;99.90
12568;DHT22;6349;50.904;6.136;2023-07-31T07:32:32;17.20;99.90
12568;DHT22;6349;50.904;6.136;2023-07-31T07:34:33;17.20;99.90
12568;DHT22;6349;50.904;6.136;2023-07-31T07:36:34;17.20;99.90
12568;DHT22;6349;50.904;6.136;2023-07-31T07:38:34;17.20;99.90
12568;DHT22;6349;50.904;6.136;2023-07-31T07:40:39;17.20;99.90
12568;DHT22;6349;50.904;6.136;2023-07-31T07:42:39;17.20;99.90
12568;DHT22;6349;50.904;6.136;2023-07-31T07:44:40;17.20;99.90
12568;DHT22;6349;50.904;6.136;2023-07-31T07:46:41;17.20;99.90
12568;DHT22;6349;50.904;6.136;2023-07-31T07:48:41;17.20;99.90
12568;DHT22;6349;50.904;6.136;2023-07-31T07:50:42;17.20;99.90
12568;DHT22;6349;50.904;6.136;2023-07-31T07:52:42;17.20;99.90
12568;DHT22;6349;50.904;6.136;2023-07-31T07:54:43;17.20;99.90
12568;DHT22;6349;50.904;6.136;2023-07-31T07:56:43;17.30;99.90
12568;DHT22;6349;50.904;6.136;2023-07-31T07:58:44;17.40;99.90
12568;DHT22;6349;50.904;6.136;2023-07-31T08:00:51;17.20;99.90
12568;DHT22;6349;50.904;6.136;2023-07-31T08:02:52;17.30;99.90
12568;DHT22;6349;50.904;6.136;2023-07-31T08:04:53;17.40;99.90
12568;DHT22;6349;50.904;6.136;2023-07-31T08:06:53;17.40;99.90
12568;DHT22;6349;50.904;6.136;2023-07-31T08:08:54;17.40;99.90
12568;DHT22;6349;50.904;6.136;2023-07-31T08:10:54;17.40;99.90
12568;DHT22;6349;50.904;6.136;2023-07-31T08:12:55;17.40;99.90
12568;DHT22;6349;50.904;6.136;2023-07-31T08:14:55;17.40;99.90
12568;DHT22;6349;50.904;6.136;2023-07-31T08:16:56;17.40;99.90
12568;DHT22;6349;50.904;6.136;2023-07-31T08:18:57;17.50;99.90
12568;DHT22;6349;50.904;6.136;2023-07-31T08:20:57;17.50;99.90
12568;DHT22;6349;50.904;6.136;2023-07-31T08:22:58;17.60;99.90
12568;DHT22;6349;50.904;6.136;2023-07-31T08:24:59;17.60;99.90
12568;DHT22;6349;50.904;6.136;2023-07-31T08:26:59;17.60;99.90
12568;DHT22;6349;50.904;6.136;2023-07-31T08:29:00;17.50;99.90
12568;DHT22;6349;50.904;6.136;2023-07-31T08:31:00;17.50;99.90
12568;DHT22;6349;50.904;6.136;2023-07-31T08:33:01;17.40;99.90
12568;DHT22;6349;50.904;6.136;2023-07-31T08:35:01;17.40;99.90
12568;DHT22;6349;50.904;6.136;2023-07-31T08:37:03;17.40;99.90
12568;DHT22;6349;50.904;6.136;2023-07-31T08:39:03;17.40;99.90
12568;DHT22;6349;50.904;6.136;2023-07-31T08:41:04;17.40;99.90
12568;DHT22;6349;50.904;6.136;2023-07-31T08:43:05;17.40;99.90
12568;DHT22;6349;50.904;6.136;2023-07-31T08:45:08;17.40;99.90
12568;DHT22;6349;50.904;6.136;2023-07-31T08:47:09;17.40;99.90
12568;DHT22;6349;50.904;6.136;2023-07-31T08:49:10;17.40;99.90
12568;DHT22;6349;50.904;6.136;2023-07-31T08:51:11;17.30;99.90
12568;DHT22;6349;50.904;6.136;2023-07-31T08:53:12;17.30;99.90
12568;DHT22;6349;50.904;6.136;2023-07-31T08:55:12;17.30;99.90
12568;DHT22;6349;50.904;6.136;2023-07-31T08:57:14;17.30;99.90
12568;DHT22;6349;50.904;6.136;2023-07-31T08:59:15;17.30;99.90
12568;DHT22;6349;50.904;6.136;2023-07-31T09:01:18;17.40;99.90
12568;DHT22;6349;50.904;6.136;2023-07-31T09:03:18;17.30;99.90
12568;DHT22;6349;50.904;6.136;2023-07-31T09:05:21;17.50;99.90
12568;DHT22;6349;50.904;6.136;2023-07-31T09:07:22;17.50;99.90
12568;DHT22;6349;50.904;6.136;2023-07-31T09:09:23;17.50;99.90
12568;DHT22;6349;50.904;6.136;2023-07-31T09:11:24;17.50;99.90
12568;DHT22;6349;50.904;6.136;2023-07-31T09:13:26;17.60;99.90
12568;DHT22;6349;50.904;6.136;2023-07-31T09:15:29;17.60;99.90
12568;DHT22;6349;50.904;6.136;2023-07-31T09:17:30;17.60;99.90
12568;DHT22;6349;50.904;6.136;2023-07-31T09:19:35;17.60;99.90
12568;DHT22;6349;50.904;6.136;2023-07-31T09:21:47;17.70;99.90
12568;DHT22;6349;50.904;6.136;2023-07-31T09:23:49;17.80;99.90
12568;DHT22;6349;50.904;6.136;2023-07-31T09:25:53;17.80;99.90
12568;DHT22;6349;50.904;6.136;2023-07-31T09:30:00;17.90;99.90
12568;DHT22;6349;50.904;6.136;2023-07-31T09:32:00;17.80;99.90
12568;DHT22;6349;50.904;6.136;2023-07-31T09:34:01;17.90;99.90
12568;DHT22;6349;50.904;6.136;2023-07-31T09:36:04;17.90;99.90
12568;DHT22;6349;50.904;6.136;2023-07-31T09:38:06;17.90;99.90
12568;DHT22;6349;50.904;6.136;2023-07-31T09:40:08;17.90;99.90
12568;DHT22;6349;50.904;6.136;2023-07-31T09:42:08;18.00;99.90
12568;DHT22;6349;50.904;6.136;2023-07-31T09:44:10;17.90;99.90
12568;DHT22;6349;50.904;6.136;2023-07-31T09:46:13;18.00;99.90
12568;DHT22;6349;50.904;6.136;2023-07-31T09:48:16;18.00;99.90
12568;DHT22;6349;50.904;6.136;2023-07-31T09:50:17;17.90;99.90
12568;DHT22;6349;50.904;6.136;2023-07-31T09:52:17;17.90;99.90
12568;DHT22;6349;50.904;6.136;2023-07-31T09:54:18;17.90;99.90
12568;DHT22;6349;50.904;6.136;2023-07-31T09:56:21;17.90;99.90
12568;DHT22;6349;50.904;6.136;2023-07-31T09:58:22;17.90;99.90
12568;DHT22;6349;50.904;6.136;2023-07-31T10:00:23;17.80;99.90
12568;DHT22;6349;50.904;6.136;2023-07-31T10:02:26;17.90;99.90
12568;DHT22;6349;50.904;6.136;2023-07-31T10:04:28;17.90;99.90
12568;DHT22;6349;50.904;6.136;2023-07-31T10:06:29;17.90;99.90
12568;DHT22;6349;50.904;6.136;2023-07-31T10:08:32;17.80;99.90
12568;DHT22;6349;50.904;6.136;2023-07-31T10:10:36;17.80;99.90
12568;DHT22;6349;50.904;6.136;2023-07-31T10:12:38;17.80;99.90
12568;DHT22;6349;50.904;6.136;2023-07-31T10:14:40;17.80;99.90
12568;DHT22;6349;50.904;6.136;2023-07-31T10:16:41;17.80;99.90
12568;DHT22;6349;50.904;6.136;2023-07-31T10:18:43;17.80;99.90
12568;DHT22;6349;50.904;6.136;2023-07-31T10:20:46;17.80;99.90
12568;DHT22;6349;50.904;6.136;2023-07-31T10:22:47;17.80;99.90
12568;DHT22;6349;50.904;6.136;2023-07-31T10:24:50;17.70;99.90
12568;DHT22;6349;50.904;6.136;2023-07-31T10:26:53;17.70;99.90
12568;DHT22;6349;50.904;6.136;2023-07-31T10:28:55;17.70;99.90
12568;DHT22;6349;50.904;6.136;2023-07-31T10:30:56;17.70;99.90
12568;DHT22;6349;50.904;6.136;2023-07-31T10:32:57;17.70;99.90
12568;DHT22;6349;50.904;6.136;2023-07-31T10:34:58;17.80;99.90
12568;DHT22;6349;50.904;6.136;2023-07-31T10:37:19;17.70;99.90
12568;DHT22;6349;50.904;6.136;2023-07-31T10:39:36;17.70;99.90
12568;DHT22;6349;50.904;6.136;2023-07-31T10:41:38;17.60;99.90
12568;DHT22;6349;50.904;6.136;2023-07-31T10:43:39;17.70;99.90
12568;DHT22;6349;50.904;6.136;2023-07-31T10:45:43;17.70;99.90
12568;DHT22;6349;50.904;6.136;2023-07-31T10:47:45;17.70;99.90
12568;DHT22;6349;50.904;6.136;2023-07-31T10:49:46;17.70;99.90
12568;DHT22;6349;50.904;6.136;2023-07-31T10:51:49;17.70;99.90
12568;DHT22;6349;50.904;6.136;2023-07-31T10:54:13;17.80;99.90
12568;DHT22;6349;50.904;6.136;2023-07-31T10:56:15;17.90;99.90
12568;DHT22;6349;50.904;6.136;2023-07-31T10:58:20;17.80;99.90
12568;DHT22;6349;50.904;6.136;2023-07-31T11:00:28;17.90;99.90
12568;DHT22;6349;50.904;6.136;2023-07-31T11:02:33;17.90;99.90
12568;DHT22;6349;50.904;6.136;2023-07-31T11:04:33;18.00;99.90
12568;DHT22;6349;50.904;6.136;2023-07-31T11:06:36;18.00;99.90
12568;DHT22;6349;50.904;6.136;2023-07-31T11:08:47;18.00;99.90
12568;DHT22;6349;50.904;6.136;2023-07-31T11:10:50;18.00;99.90
12568;DHT22;6349;50.904;6.136;2023-07-31T11:12:51;18.00;99.90
12568;DHT22;6349;50.904;6.136;2023-07-31T11:14:57;18.00;99.90
12568;DHT22;6349;50.904;6.136;2023-07-31T11:16:58;18.10;99.90
12568;DHT22;6349;50.904;6.136;2023-07-31T11:18:59;18.10;99.90
12568;DHT22;6349;50.904;6.136;2023-07-31T11:20:59;18.10;99.90
12568;DHT22;6349;50.904;6.136;2023-07-31T11:23:02;18.00;99.90
12568;DHT22;6349;50.904;6.136;2023-07-31T11:25:03;18.10;99.90
12568;DHT22;6349;50.904;6.136;2023-07-31T11:27:07;18.00;99.90
12568;DHT22;6349;50.904;6.136;2023-07-31T11:29:11;18.10;99.90
12568;DHT22;6349;50.904;6.136;2023-07-31T11:31:12;18.10;99.90
12568;DHT22;6349;50.904;6.136;2023-07-31T11:33:13;18.10;99.90
12568;DHT22;6349;50.904;6.136;2023-07-31T11:35:14;18.10;99.90
12568;DHT22;6349;50.904;6.136;2023-07-31T11:37:14;18.00;99.90
12568;DHT22;6349;50.904;6.136;2023-07-31T11:39:15;18.00;99.90
12568;DHT22;6349;50.904;6.136;2023-07-31T11:41:16;18.10;99.90
12568;DHT22;6349;50.904;6.136;2023-07-31T11:43:18;18.00;99.90
12568;DHT22;6349;50.904;6.136;2023-07-31T11:45:19;18.00;99.90
12568;DHT22;6349;50.904;6.136;2023-07-31T11:47:19;18.00;99.90
12568;DHT22;6349;50.904;6.136;2023-07-31T11:49:21;18.00;99.90
12568;DHT22;6349;50.904;6.136;2023-07-31T11:51:21;18.00;99.90
12568;DHT22;6349;50.904;6.136;2023-07-31T11:53:43;18.00;99.90
12568;DHT22;6349;50.904;6.136;2023-07-31T11:55:44;18.00;99.90
12568;DHT22;6349;50.904;6.136;2023-07-31T11:57:45;18.10;99.90
12568;DHT22;6349;50.904;6.136;2023-07-31T11:59:47;18.10;99.90
12568;DHT22;6349;50.904;6.136;2023-07-31T12:01:47;18.20;99.90
12568;DHT22;6349;50.904;6.136;2023-07-31T12:03:50;18.20;99.90
12568;DHT22;6349;50.904;6.136;2023-07-31T12:05:53;18.20;99.90
12568;DHT22;6349;50.904;6.136;2023-07-31T12:07:55;18.20;99.90
12568;DHT22;6349;50.904;6.136;2023-07-31T12:09:56;18.20;99.90
12568;DHT22;6349;50.904;6.136;2023-07-31T12:11:57;18.20;99.90
12568;DHT22;6349;50.904;6.136;2023-07-31T12:13:58;18.20;99.90
12568;DHT22;6349;50.904;6.136;2023-07-31T12:16:01;18.20;99.90
12568;DHT22;6349;50.904;6.136;2023-07-31T12:18:08;18.20;99.90
12568;DHT22;6349;50.904;6.136;2023-07-31T12:20:09;18.20;99.90
12568;DHT22;6349;50.904;6.136;2023-07-31T12:22:14;18.20;99.90
12568;DHT22;6349;50.904;6.136;2023-07-31T12:24:18;18.30;99.90
12568;DHT22;6349;50.904;6.136;2023-07-31T12:26:19;18.30;99.90
12568;DHT22;6349;50.904;6.136;2023-07-31T12:28:22;18.30;99.90
12568;DHT22;6349;50.904;6.136;2023-07-31T12:30:31;18.30;99.90
12568;DHT22;6349;50.904;6.136;2023-07-31T12:32:31;18.30;99.90
12568;DHT22;6349;50.904;6.136;2023-07-31T12:34:42;18.30;99.90
12568;DHT22;6349;50.904;6.136;2023-07-31T12:36:42;18.40;99.90
12568;DHT22;6349;50.904;6.136;2023-07-31T12:38:44;18.40;99.90
12568;DHT22;6349;50.904;6.136;2023-07-31T12:40:44;18.30;99.90
12568;DHT22;6349;50.904;6.136;2023-07-31T12:42:45;18.30;99.90
12568;DHT22;6349;50.904;6.136;2023-07-31T12:44:46;18.30;99.90
12568;DHT22;6349;50.904;6.136;2023-07-31T12:46:46;18.30;99.90
12568;DHT22;6349;50.904;6.136;2023-07-31T12:48:47;18.30;99.90
12568;DHT22;6349;50.904;6.136;2023-07-31T12:50:47;18.30;99.90
12568;DHT22;6349;50.904;6.136;2023-07-31T12:52:48;18.40;99.90
12568;DHT22;6349;50.904;6.136;2023-07-31T12:54:48;18.50;99.90
12568;DHT22;6349;50.904;6.136;2023-07-31T12:56:49;18.60;99.90
12568;DHT22;6349;50.904;6.136;2023-07-31T12:58:49;18.70;99.90
12568;DHT22;6349;50.904;6.136;2023-07-31T13:00:50;18.80;99.90
12568;DHT22;6349;50.904;6.136;2023-07-31T13:02:51;19.00;99.90
12568;DHT22;6349;50.904;6.136;2023-07-31T13:04:52;19.10;99.90
12568;DHT22;6349;50.904;6.136;2023-07-31T13:06:53;19.10;99.90
12568;DHT22;6349;50.904;6.136;2023-07-31T13:08:54;19.20;99.90